Terminal Aerodrome Forecast
Issued by NWS Amarillo, TX

Home | Current Version | Previous Version | Text Only | Print | Product List | Glossary On
Versions: 1 2 3 4 5 6 7 8 9 10 11 12 13 14 15 16 17 18
543
FTUS44 KAMA 291230 AAA
TAFDHT
TAF AMD
KDHT 291230Z 2913/3012 01022KT 2SM -SN BR SCT005 OVC010
      TEMPO 2913/2914 1SM -SN BR OVC005
     FM291400 02030G40KT 1SM -SN BLSN OVC004
      AMD NOT SKED=

USA.gov is the U.S. government's official web portal to all federal, state and local government web resources and services.